Time;durP1;ratioP1;P1;durP2;ratioP2;P2;SDS_P1;SDS_P2;PMS_P1;PMS_P2;Temp;Humidity;BMP_temperature;BMP_pressure;BME280_temperature;BME280_humidity;BME280_pressure;Samples;Min_cycle;Max_cycle;Signal;HPM_P1;HPM_P2
2023/01/14 00:01:50;;;;;;;6.97;2.20;;;6.20;87.30;;;;;;5028650;28;20539;-75
2023/01/14 00:04:16;;;;;;;6.83;2.03;;;6.20;86.90;;;;;;5029648;28;20751;-77
2023/01/14 00:06:41;;;;;;;5.40;2.50;;;6.30;86.80;;;;;;5027610;28;20361;-75
2023/01/14 00:09:11;;;;;;;7.43;2.43;;;6.30;86.50;;;;;;5026968;28;20188;-77
2023/01/14 00:11:46;;;;;;;6.40;2.37;;;6.30;86.50;;;;;;5030326;28;20646;-75
2023/01/14 00:14:15;;;;;;;7.60;2.57;;;6.20;87.30;;;;;;5031736;28;20501;-77
2023/01/14 00:16:41;;;;;;;7.67;2.53;;;6.10;87.70;;;;;;5025751;28;20471;-74
2023/01/14 00:19:07;;;;;;;12.87;2.90;;;6.00;88.60;;;;;;5042083;28;20412;-76
2023/01/14 00:21:33;;;;;;;6.23;2.73;;;5.90;89.30;;;;;;5041848;28;20490;-75
2023/01/14 00:23:59;;;;;;;5.30;2.47;;;5.80;89.60;;;;;;5023681;28;20424;-74
2023/01/14 00:26:25;;;;;;;7.40;2.50;;;5.80;89.90;;;;;;5024233;28;20209;-74
2023/01/14 00:28:51;;;;;;;7.70;2.63;;;5.70;90.10;;;;;;5022450;28;20165;-73
2023/01/14 00:31:20;;;;;;;8.33;2.47;;;5.60;90.20;;;;;;5024450;28;20877;-74
2023/01/14 00:33:46;;;;;;;8.80;2.40;;;5.60;90.40;;;;;;5024197;28;20574;-73
2023/01/14 00:36:13;;;;;;;9.70;3.10;;;5.50;90.60;;;;;;5020526;28;20948;-71
2023/01/14 00:38:39;;;;;;;7.20;2.30;;;5.40;90.70;;;;;;5025107;28;20596;-73
2023/01/14 00:41:22;;;;;;;5.70;2.40;;;5.50;90.70;;;;;;5025300;28;21156;-74
2023/01/14 00:43:50;;;;;;;6.47;2.67;;;5.50;90.80;;;;;;5026107;28;20448;-72
2023/01/14 00:46:18;;;;;;;6.07;2.10;;;5.40;90.60;;;;;;5029029;28;20428;-72
2023/01/14 00:48:44;;;;;;;7.73;2.43;;;5.40;90.50;;;;;;5027924;28;20464;-74
2023/01/14 00:51:11;;;;;;;7.30;2.20;;;5.40;90.40;;;;;;5029467;28;20444;-72
2023/01/14 00:53:37;;;;;;;5.23;2.00;;;5.50;90.20;;;;;;5030422;28;20664;-73
2023/01/14 00:56:03;;;;;;;6.67;2.73;;;5.50;90.10;;;;;;5030856;28;20423;-72
2023/01/14 00:58:29;;;;;;;9.80;2.57;;;5.50;89.90;;;;;;5027473;28;20479;-71
2023/01/14 01:00:55;;;;;;;5.70;2.70;;;5.50;89.90;;;;;;5029148;28;20420;-74
2023/01/14 01:03:21;;;;;;;6.40;2.87;;;5.50;89.90;;;;;;5027414;28;20665;-72
2023/01/14 01:05:47;;;;;;;6.27;2.50;;;5.50;89.90;;;;;;5029128;28;20428;-72
2023/01/14 01:08:15;;;;;;;9.60;3.10;;;5.50;89.90;;;;;;5023231;28;20464;-72
2023/01/14 01:10:42;;;;;;;8.30;2.77;;;5.50;89.90;;;;;;5028460;28;20639;-71
2023/01/14 01:13:09;;;;;;;8.77;2.80;;;5.50;89.90;;;;;;5026000;28;20491;-72
2023/01/14 01:15:35;;;;;;;6.17;2.50;;;5.50;89.90;;;;;;5027454;28;21177;-72
2023/01/14 01:18:02;;;;;;;4.93;2.77;;;5.50;89.90;;;;;;5028797;28;20460;-73
2023/01/14 01:20:28;;;;;;;7.70;2.87;;;5.50;90.00;;;;;;5027774;28;20422;-74
2023/01/14 01:22:53;;;;;;;7.27;2.40;;;5.50;90.10;;;;;;5025447;28;20500;-73
2023/01/14 01:25:19;;;;;;;7.63;2.40;;;5.40;90.10;;;;;;5026198;28;20663;-73
2023/01/14 01:27:44;;;;;;;5.77;2.57;;;5.40;90.20;;;;;;5021365;28;20221;-72
2023/01/14 01:30:11;;;;;;;4.33;2.13;;;5.30;90.20;;;;;;5023191;28;20181;-72
2023/01/14 01:32:36;;;;;;;14.73;3.63;;;5.20;90.30;;;;;;5027239;28;20177;-71
2023/01/14 01:35:02;;;;;;;9.47;3.20;;;5.30;90.40;;;;;;5029263;28;20488;-73
2023/01/14 01:37:28;;;;;;;7.80;2.30;;;5.30;90.40;;;;;;5024747;28;20264;-72
2023/01/14 01:39:53;;;;;;;5.80;2.40;;;5.30;90.50;;;;;;5029829;28;20177;-72
2023/01/14 01:42:23;;;;;;;5.67;1.83;;;5.20;90.50;;;;;;5022752;28;20439;-72
2023/01/14 01:44:48;;;;;;;6.63;2.40;;;5.20;90.50;;;;;;5030013;28;20177;-72
2023/01/14 01:47:15;;;;;;;5.33;2.13;;;5.20;90.50;;;;;;5022248;28;20605;-72
2023/01/14 01:49:41;;;;;;;8.53;2.30;;;5.20;90.50;;;;;;5029353;28;20189;-74
2023/01/14 01:52:12;;;;;;;4.33;1.90;;;5.20;90.60;;;;;;5026458;28;20419;-73
2023/01/14 01:54:45;;;;;;;4.20;2.00;;;5.10;90.70;;;;;;5021092;28;20977;-74
2023/01/14 01:57:15;;;;;;;9.93;2.50;;;5.10;90.80;;;;;;5027043;28;20467;-74
2023/01/14 01:59:44;;;;;;;11.97;2.93;;;5.10;90.90;;;;;;5028075;28;20489;-73
2023/01/14 02:02:11;;;;;;;6.27;2.20;;;5.10;91.00;;;;;;5024582;28;20431;-73
2023/01/14 02:04:37;;;;;;;9.60;3.00;;;5.00;91.10;;;;;;5026128;28;20510;-73
2023/01/14 02:07:20;;;;;;;7.80;2.70;;;5.10;91.20;;;;;;5023432;28;20482;-74
2023/01/14 02:09:47;;;;;;;9.60;2.90;;;5.10;91.20;;;;;;5021766;28;20522;-73
2023/01/14 02:12:19;;;;;;;5.10;2.70;;;5.00;91.20;;;;;;5027748;28;20767;-72
2023/01/14 02:15:03;;;;;;;16.83;2.50;;;5.00;91.30;;;;;;5024041;28;20975;-72
2023/01/14 02:17:54;;;;;;;5.23;2.33;;;5.00;91.30;;;;;;5023106;28;20598;-73
2023/01/14 02:20:41;;;;;;;5.90;2.90;;;5.10;91.30;;;;;;5028088;28;20783;-72
2023/01/14 02:23:38;;;;;;;6.40;2.53;;;5.10;91.20;;;;;;5019774;28;20428;-74
2023/01/14 02:26:37;;;;;;;6.37;2.33;;;5.00;90.90;;;;;;5028427;28;20499;-71
2023/01/14 02:29:36;;;;;;;10.00;2.50;;;5.00;91.00;;;;;;5023401;28;20433;-73
2023/01/14 02:32:34;;;;;;;6.70;2.27;;;5.00;91.00;;;;;;5027245;28;20416;-73
2023/01/14 02:35:24;;;;;;;5.57;2.27;;;5.00;91.00;;;;;;5024247;28;20775;-73
2023/01/14 02:38:08;;;;;;;6.30;2.43;;;5.00;90.90;;;;;;5022501;28;20455;-73
2023/01/14 02:40:59;;;;;;;6.93;2.37;;;4.90;90.90;;;;;;5027525;28;20421;-72
2023/01/14 02:46:37;;;;;;;10.33;3.00;;;4.90;90.80;;;;;;5025534;28;20958;-72
2023/01/14 02:49:06;;;;;;;5.77;2.07;;;4.80;90.90;;;;;;5022886;28;20436;-71
2023/01/14 02:51:33;;;;;;;4.17;2.07;;;4.80;90.90;;;;;;5025325;28;20459;-72
2023/01/14 02:53:59;;;;;;;6.43;2.30;;;4.80;90.90;;;;;;5025700;28;20463;-70
2023/01/14 02:56:26;;;;;;;5.37;3.30;;;4.80;90.90;;;;;;5027395;28;20427;-72
2023/01/14 02:59:04;;;;;;;10.23;2.60;;;4.90;90.90;;;;;;5025503;28;20671;-73
2023/01/14 03:01:55;;;;;;;4.83;2.20;;;5.00;90.80;;;;;;5030462;28;20411;-72
2023/01/14 03:04:23;;;;;;;8.53;1.90;;;5.10;90.60;;;;;;5030542;28;20992;-72
2023/01/14 03:07:24;;;;;;;7.23;2.03;;;5.10;90.10;;;;;;5021736;28;20492;-72
2023/01/14 03:10:16;;;;;;;7.07;3.40;;;5.20;90.00;;;;;;5014188;28;20432;-71
2023/01/14 03:13:18;;;;;;;9.63;2.67;;;5.10;89.70;;;;;;5025870;28;20474;-74
2023/01/14 03:16:12;;;;;;;3.73;1.73;;;5.10;89.70;;;;;;5025761;28;20419;-72
2023/01/14 03:18:47;;;;;;;6.33;2.17;;;5.20;89.70;;;;;;5022848;28;20527;-72
2023/01/14 03:21:20;;;;;;;8.07;2.20;;;5.20;89.50;;;;;;5031945;28;20450;-72
2023/01/14 03:23:58;;;;;;;8.83;1.93;;;5.20;89.00;;;;;;5032928;28;20846;-71
2023/01/14 03:26:27;;;;;;;6.60;2.40;;;5.40;88.40;;;;;;5029925;28;20419;-72
2023/01/14 03:28:55;;;;;;;2.73;1.57;;;5.40;88.00;;;;;;5030954;28;20420;-72
2023/01/14 03:31:27;;;;;;;7.33;2.07;;;5.50;87.70;;;;;;5027708;28;20421;-74
2023/01/14 03:34:00;;;;;;;14.17;2.07;;;5.50;87.60;;;;;;5028978;28;20468;-72
2023/01/14 03:36:29;;;;;;;4.90;2.23;;;5.40;87.60;;;;;;5029361;28;20412;-72
2023/01/14 03:39:00;;;;;;;8.27;2.53;;;5.50;87.60;;;;;;5030236;28;20480;-72
2023/01/14 03:44:34;;;;;;;5.40;2.00;;;5.50;87.30;;;;;;5032235;28;20481;-72
2023/01/14 03:47:00;;;;;;;7.27;1.83;;;5.60;87.00;;;;;;5028496;28;20491;-72
2023/01/14 03:49:25;;;;;;;3.80;1.70;;;5.60;86.90;;;;;;5032856;28;20946;-74
2023/01/14 03:52:09;;;;;;;6.93;2.17;;;5.70;86.80;;;;;;5033161;28;20664;-72
2023/01/14 03:55:02;;;;;;;5.87;1.80;;;5.60;86.50;;;;;;5022141;28;20281;-73
2023/01/14 03:57:53;;;;;;;2.83;1.27;;;5.70;86.50;;;;;;5030592;28;20502;-72
2023/01/14 04:00:42;;;;;;;3.37;1.30;;;5.60;86.20;;;;;;5030321;28;20416;-73
2023/01/14 04:03:09;;;;;;;9.63;1.67;;;5.60;86.60;;;;;;5021355;28;20972;-74
2023/01/14 04:05:36;;;;;;;6.90;1.70;;;5.70;86.50;;;;;;5031745;28;20919;-74
2023/01/14 04:08:03;;;;;;;5.03;2.10;;;5.70;86.20;;;;;;5020261;28;20987;-72
2023/01/14 04:10:29;;;;;;;3.73;1.67;;;5.70;86.50;;;;;;5031519;28;20929;-75
2023/01/14 04:15:39;;;;;;;6.40;1.60;;;5.70;86.50;;;;;;5029838;28;20435;-73
2023/01/14 04:18:05;;;;;;;2.80;1.63;;;5.70;86.50;;;;;;5026394;28;20847;-73
2023/01/14 04:20:31;;;;;;;5.30;1.40;;;5.70;86.50;;;;;;5031784;28;20260;-74
2023/01/14 04:22:57;;;;;;;12.57;2.27;;;5.70;86.20;;;;;;5031657;28;20258;-72
2023/01/14 04:25:23;;;;;;;4.03;1.60;;;5.70;86.20;;;;;;5031813;28;20830;-72
2023/01/14 04:27:48;;;;;;;6.70;1.93;;;5.60;86.00;;;;;;5026392;28;20509;-72
2023/01/14 04:30:14;;;;;;;3.10;1.80;;;5.70;85.70;;;;;;5031441;28;20268;-72
2023/01/14 04:32:39;;;;;;;5.27;1.70;;;5.70;85.60;;;;;;5029822;28;20207;-73
2023/01/14 04:35:06;;;;;;;6.63;1.43;;;5.80;85.50;;;;;;5031801;28;20565;-74
2023/01/14 04:37:31;;;;;;;6.60;2.23;;;5.80;85.20;;;;;;5027246;28;20273;-75
2023/01/14 04:39:57;;;;;;;6.10;1.60;;;5.90;85.00;;;;;;5031201;28;20511;-73
2023/01/14 04:42:26;;;;;;;9.83;1.70;;;6.00;84.70;;;;;;5028444;28;20197;-72
2023/01/14 04:44:56;;;;;;;3.30;1.40;;;6.00;84.40;;;;;;5027048;28;20181;-72
2023/01/14 04:47:23;;;;;;;4.73;1.87;;;6.00;84.30;;;;;;5027062;28;20460;-72
2023/01/14 04:49:49;;;;;;;5.50;1.90;;;6.10;84.10;;;;;;5031908;28;20426;-74
2023/01/14 04:52:14;;;;;;;5.53;1.80;;;6.10;83.80;;;;;;5025676;28;20515;-74
2023/01/14 04:54:40;;;;;;;4.17;1.60;;;6.10;83.70;;;;;;5030605;28;20476;-72
2023/01/14 04:57:05;;;;;;;7.37;1.70;;;6.10;83.80;;;;;;5021963;28;20209;-73
2023/01/14 04:59:31;;;;;;;3.77;1.43;;;6.10;83.70;;;;;;5031722;28;20186;-72
2023/01/14 05:01:57;;;;;;;4.87;1.37;;;6.10;83.80;;;;;;5029820;28;20260;-71
2023/01/14 05:04:22;;;;;;;4.90;1.67;;;6.10;84.00;;;;;;5029642;28;20268;-73
2023/01/14 05:06:48;;;;;;;2.80;1.73;;;6.10;84.00;;;;;;5018244;28;20210;-73
2023/01/14 05:09:13;;;;;;;3.10;1.50;;;6.00;84.30;;;;;;5021858;28;20225;-74
2023/01/14 05:11:39;;;;;;;9.03;1.70;;;5.90;84.90;;;;;;5026555;28;20185;-74
2023/01/14 05:14:04;;;;;;;3.70;2.00;;;5.80;85.20;;;;;;5024734;28;20221;-73
2023/01/14 05:16:30;;;;;;;6.17;1.73;;;5.60;85.60;;;;;;5023609;28;20197;-72
2023/01/14 05:18:56;;;;;;;2.93;1.40;;;5.50;86.30;;;;;;5025740;28;20196;-72
2023/01/14 05:21:22;;;;;;;5.67;2.30;;;5.40;86.90;;;;;;5026400;28;20268;-74
2023/01/14 05:23:48;;;;;;;5.37;1.80;;;5.20;87.40;;;;;;5025479;28;20903;-72
2023/01/14 05:26:14;;;;;;;3.53;1.80;;;5.10;88.00;;;;;;5022059;28;20663;-74
2023/01/14 05:28:40;;;;;;;3.47;1.63;;;5.00;88.60;;;;;;5033859;28;20455;-72
2023/01/14 05:31:06;;;;;;;4.23;1.90;;;4.90;88.90;;;;;;5025336;28;20433;-71
2023/01/14 05:33:31;;;;;;;5.87;1.80;;;4.80;89.30;;;;;;5032070;28;20201;-72
2023/01/14 05:35:59;;;;;;;6.03;2.00;;;4.80;89.60;;;;;;5021959;28;20456;-72
2023/01/14 05:38:25;;;;;;;5.97;1.87;;;4.70;89.70;;;;;;5025119;28;20259;-74
2023/01/14 05:40:52;;;;;;;5.90;2.07;;;4.80;90.00;;;;;;5030323;28;20423;-73
2023/01/14 05:46:05;;;;;;;6.47;1.53;;;4.70;90.00;;;;;;5025126;28;20424;-73
2023/01/14 05:48:31;;;;;;;3.63;1.80;;;4.70;90.20;;;;;;5027203;28;20547;-72
2023/01/14 05:50:58;;;;;;;4.33;1.73;;;4.80;90.00;;;;;;5025654;28;20998;-72
2023/01/14 05:53:25;;;;;;;5.03;2.00;;;4.90;89.60;;;;;;5028045;28;20239;-74
2023/01/14 05:55:51;;;;;;;13.40;2.27;;;5.00;89.30;;;;;;5029680;28;20420;-73
2023/01/14 05:58:17;;;;;;;7.53;2.00;;;4.90;89.00;;;;;;5024386;28;20483;-74
2023/01/14 06:06:26;;;;;;;5.70;1.90;;;4.90;89.20;;;;;;5025561;28;20494;-71
2023/01/14 06:08:51;;;;;;;7.40;1.87;;;4.80;89.20;;;;;;5028061;28;20933;-72
2023/01/14 06:11:20;;;;;;;5.13;2.00;;;4.80;89.30;;;;;;5024349;28;20417;-73
2023/01/14 06:13:51;;;;;;;7.50;1.90;;;4.80;89.30;;;;;;5025437;28;20209;-73
2023/01/14 06:16:18;;;;;;;3.80;1.60;;;4.80;89.50;;;;;;5017539;28;20955;-72
2023/01/14 06:18:44;;;;;;;7.20;1.90;;;4.80;89.30;;;;;;5018669;28;20440;-72
2023/01/14 06:21:29;;;;;;;4.13;1.93;;;4.80;89.30;;;;;;5021377;28;20939;-74
2023/01/14 06:23:57;;;;;;;2.83;1.90;;;4.80;89.50;;;;;;5018488;28;20430;-72
2023/01/14 06:26:27;;;;;;;5.03;1.87;;;4.80;89.60;;;;;;5027449;28;20470;-73
2023/01/14 06:29:04;;;;;;;6.30;3.53;;;4.80;89.50;;;;;;5020189;28;20419;-73
2023/01/14 06:31:30;;;;;;;3.70;1.70;;;4.90;89.20;;;;;;5030194;28;20930;-73
2023/01/14 06:33:57;;;;;;;4.40;1.77;;;4.90;88.70;;;;;;5030364;28;20556;-73
2023/01/14 06:36:24;;;;;;;6.80;1.60;;;4.90;88.30;;;;;;5029436;28;20938;-73
2023/01/14 06:38:49;;;;;;;2.43;1.43;;;5.00;88.10;;;;;;5028125;28;20458;-73
2023/01/14 06:41:15;;;;;;;6.73;1.60;;;5.00;87.80;;;;;;5033266;28;20536;-72
2023/01/14 06:43:41;;;;;;;3.50;1.53;;;5.00;87.60;;;;;;5031455;28;20189;-74
2023/01/14 06:46:09;;;;;;;6.60;2.30;;;5.10;86.90;;;;;;5030093;28;20184;-72
2023/01/14 06:48:35;;;;;;;6.17;1.63;;;5.20;86.50;;;;;;5029161;28;20427;-73
2023/01/14 06:51:05;;;;;;;4.27;1.80;;;5.20;86.20;;;;;;5032137;28;20428;-74
2023/01/14 06:53:31;;;;;;;3.87;1.80;;;5.30;86.00;;;;;;5027714;28;20201;-72
2023/01/14 06:56:02;;;;;;;8.10;2.43;;;5.40;85.70;;;;;;5030852;28;20416;-72
2023/01/14 06:58:28;;;;;;;4.17;1.70;;;5.40;85.70;;;;;;5028823;28;20885;-73
2023/01/14 07:00:55;;;;;;;5.47;2.13;;;5.50;85.30;;;;;;5032558;28;20412;-73
2023/01/14 07:03:20;;;;;;;7.40;2.03;;;5.60;85.00;;;;;;5031879;28;20190;-73
2023/01/14 07:05:46;;;;;;;4.63;2.00;;;5.70;85.00;;;;;;5023300;28;20953;-72
2023/01/14 07:08:13;;;;;;;10.03;1.90;;;5.80;84.60;;;;;;5026899;28;20225;-72
2023/01/14 07:10:38;;;;;;;5.07;1.60;;;5.80;84.40;;;;;;5028100;28;20450;-73
2023/01/14 07:13:04;;;;;;;6.90;2.00;;;5.90;84.00;;;;;;5032834;28;20237;-72
2023/01/14 07:15:29;;;;;;;3.20;1.37;;;5.90;83.70;;;;;;5027911;28;20184;-73
2023/01/14 07:17:55;;;;;;;11.37;2.40;;;5.90;83.00;;;;;;5028412;28;20680;-74
2023/01/14 07:20:20;;;;;;;7.33;2.30;;;6.00;82.80;;;;;;5028195;28;20189;-72
2023/01/14 07:22:46;;;;;;;4.50;1.77;;;6.00;82.70;;;;;;5027621;28;20565;-74
2023/01/14 07:25:12;;;;;;;4.60;1.57;;;6.10;82.70;;;;;;5031231;28;20215;-72
2023/01/14 07:27:37;;;;;;;6.90;2.90;;;6.20;82.20;;;;;;5026565;28;20628;-73
2023/01/14 07:30:04;;;;;;;8.33;2.17;;;6.20;81.90;;;;;;5025996;28;20263;-73
2023/01/14 07:32:33;;;;;;;7.87;2.03;;;6.10;81.80;;;;;;5026889;28;20173;-71
2023/01/14 07:34:59;;;;;;;5.90;1.93;;;6.20;81.80;;;;;;5027017;28;20875;-72
2023/01/14 07:37:24;;;;;;;4.50;1.93;;;6.30;81.50;;;;;;5025823;28;20521;-72
2023/01/14 07:39:50;;;;;;;5.60;1.90;;;6.40;81.50;;;;;;5034473;28;20931;-74
2023/01/14 07:42:19;;;;;;;5.60;2.17;;;6.50;81.10;;;;;;5034509;28;20181;-74
2023/01/14 07:44:44;;;;;;;4.83;1.63;;;6.50;80.80;;;;;;5032138;28;20204;-73
2023/01/14 07:47:11;;;;;;;9.33;1.93;;;6.50;80.80;;;;;;5024826;28;20452;-72
2023/01/14 07:49:39;;;;;;;11.00;1.60;;;6.60;80.60;;;;;;5031475;28;20204;-73
2023/01/14 07:52:05;;;;;;;4.63;1.80;;;6.60;80.50;;;;;;5021547;28;20421;-72
2023/01/14 07:54:31;;;;;;;5.97;2.10;;;6.60;80.80;;;;;;5019790;28;20595;-72
2023/01/14 07:56:56;;;;;;;3.27;1.70;;;6.60;80.80;;;;;;5020716;28;20467;-73
2023/01/14 07:59:22;;;;;;;11.10;2.47;;;6.70;80.60;;;;;;5029916;28;20185;-74
2023/01/14 08:01:48;;;;;;;5.83;2.07;;;6.70;80.80;;;;;;5022948;28;20205;-72
2023/01/14 08:04:13;;;;;;;9.10;2.30;;;6.70;80.60;;;;;;5027578;28;20181;-73
2023/01/14 08:06:39;;;;;;;9.00;2.80;;;6.80;80.60;;;;;;5025238;28;20761;-73
2023/01/14 08:09:05;;;;;;;8.70;2.10;;;6.80;80.60;;;;;;5026334;28;20512;-73
2023/01/14 08:11:31;;;;;;;6.43;2.00;;;6.80;80.60;;;;;;5019551;28;20189;-73
2023/01/14 08:13:56;;;;;;;10.63;2.30;;;6.80;80.50;;;;;;5018333;28;20463;-74
2023/01/14 08:16:22;;;;;;;8.43;2.40;;;6.90;80.50;;;;;;5024286;28;20504;-74
2023/01/14 08:18:48;;;;;;;10.90;2.03;;;6.90;80.30;;;;;;5028802;28;20184;-72
2023/01/14 08:21:14;;;;;;;5.37;1.93;;;7.00;80.30;;;;;;5024333;28;20240;-73
2023/01/14 08:23:40;;;;;;;6.23;2.37;;;7.10;80.30;;;;;;5027528;28;20489;-72
2023/01/14 08:26:09;;;;;;;7.90;2.70;;;7.10;80.00;;;;;;5021408;28;20420;-75
2023/01/14 08:28:36;;;;;;;6.97;2.50;;;7.20;80.00;;;;;;5024744;28;20201;-74
2023/01/14 08:31:06;;;;;;;8.17;2.00;;;7.30;79.70;;;;;;5026361;28;20475;-75
2023/01/14 08:33:32;;;;;;;6.33;2.03;;;7.30;79.60;;;;;;5021887;28;21132;-73
2023/01/14 08:36:07;;;;;;;6.47;2.50;;;7.40;79.50;;;;;;5030994;28;20574;-74
2023/01/14 08:38:34;;;;;;;4.73;1.93;;;7.30;79.30;;;;;;5029919;28;20462;-75
2023/01/14 08:41:07;;;;;;;11.27;2.73;;;7.40;79.30;;;;;;5036885;28;20443;-74
2023/01/14 08:43:32;;;;;;;9.53;2.50;;;7.40;79.50;;;;;;5036647;28;20890;-75
2023/01/14 08:45:59;;;;;;;6.20;2.20;;;7.40;79.50;;;;;;5036315;28;20538;-75
2023/01/14 08:48:24;;;;;;;8.10;1.93;;;7.40;79.70;;;;;;5024817;28;20266;-74
2023/01/14 08:50:50;;;;;;;3.40;1.93;;;7.50;79.70;;;;;;5033749;28;20431;-75
2023/01/14 08:53:16;;;;;;;9.10;2.60;;;7.60;79.60;;;;;;5033136;28;20716;-76
2023/01/14 08:55:41;;;;;;;11.70;3.10;;;7.60;79.50;;;;;;5035871;28;20277;-75
2023/01/14 08:58:08;;;;;;;29.73;3.43;;;7.60;79.60;;;;;;5038624;28;20231;-75
2023/01/14 09:00:34;;;;;;;7.93;2.80;;;7.70;79.60;;;;;;5037392;28;20173;-75
2023/01/14 09:03:00;;;;;;;10.10;3.33;;;7.70;79.50;;;;;;5030344;28;20425;-75
2023/01/14 09:05:26;;;;;;;4.73;2.60;;;7.80;79.60;;;;;;5033941;28;20454;-76
2023/01/14 09:19:03;;;;;;;9.87;2.80;;;8.10;79.50;;;;;;5032219;28;20419;-73
2023/01/14 09:21:29;;;;;;;5.57;3.00;;;8.10;79.50;;;;;;5033108;28;20408;-75
2023/01/14 09:23:54;;;;;;;8.57;2.47;;;8.20;79.50;;;;;;5030698;28;20424;-73
2023/01/14 09:26:20;;;;;;;3.50;2.17;;;8.20;79.60;;;;;;5030402;28;20572;-73
2023/01/14 09:28:46;;;;;;;2.47;1.50;;;8.20;79.60;;;;;;5024981;28;21199;-75
2023/01/14 09:31:11;;;;;;;5.07;2.00;;;8.20;79.70;;;;;;5028613;28;20188;-75
2023/01/14 09:33:37;;;;;;;6.10;1.70;;;8.20;79.70;;;;;;5028773;28;20459;-75
2023/01/14 09:36:03;;;;;;;4.00;1.70;;;8.30;79.90;;;;;;5031674;28;20223;-76
2023/01/14 09:38:29;;;;;;;9.20;1.80;;;8.30;79.70;;;;;;5027744;28;20197;-75
2023/01/14 09:40:55;;;;;;;4.07;1.43;;;8.40;79.60;;;;;;5032258;28;20428;-76
2023/01/14 09:43:21;;;;;;;30.43;9.93;;;8.40;79.60;;;;;;5034131;28;20733;-76
2023/01/14 09:45:58;;;;;;;7.80;3.50;;;8.40;79.70;;;;;;5027692;28;20458;-76
2023/01/14 09:48:26;;;;;;;5.23;1.90;;;8.40;79.70;;;;;;5031101;28;20825;-76
2023/01/14 09:51:32;;;;;;;4.57;1.70;;;8.50;79.60;;;;;;5030730;28;20416;-76
2023/01/14 09:54:14;;;;;;;3.30;1.70;;;8.60;79.50;;;;;;5028902;28;20474;-75
2023/01/14 09:56:47;;;;;;;4.47;1.50;;;8.70;79.30;;;;;;5020366;28;20464;-76
2023/01/14 09:59:39;;;;;;;3.83;2.20;;;8.80;79.30;;;;;;5028272;28;20486;-76
2023/01/14 10:02:16;;;;;;;5.60;2.07;;;8.80;79.00;;;;;;5030370;28;20458;-76
2023/01/14 10:05:14;;;;;;;3.20;1.60;;;8.80;79.00;;;;;;5019650;28;20558;-76
2023/01/14 10:07:40;;;;;;;2.83;1.53;;;8.80;79.30;;;;;;5027814;28;20451;-76
2023/01/14 10:10:33;;;;;;;6.73;2.93;;;8.80;79.00;;;;;;5028299;28;20420;-76
2023/01/14 10:13:07;;;;;;;4.23;1.50;;;8.90;78.70;;;;;;5034423;28;20950;-76
2023/01/14 10:15:49;;;;;;;6.03;1.63;;;8.90;78.70;;;;;;5023580;28;20416;-75
2023/01/14 10:18:33;;;;;;;6.93;1.80;;;9.00;78.10;;;;;;5021083;28;20480;-76
2023/01/14 10:21:01;;;;;;;3.77;1.70;;;9.00;78.00;;;;;;5029208;28;20432;-76
2023/01/14 10:23:36;;;;;;;4.33;1.67;;;9.00;77.70;;;;;;5030122;28;20420;-76
2023/01/14 10:26:13;;;;;;;3.73;1.87;;;9.00;77.70;;;;;;5023235;28;20451;-76
2023/01/14 10:28:40;;;;;;;6.57;1.73;;;9.00;77.70;;;;;;5023962;28;20436;-76
2023/01/14 10:31:06;;;;;;;3.50;1.67;;;9.00;77.70;;;;;;5029012;28;20776;-77
2023/01/14 10:33:32;;;;;;;2.77;1.53;;;9.10;77.60;;;;;;5032332;28;20498;-76
2023/01/14 10:36:02;;;;;;;5.83;1.80;;;9.10;77.40;;;;;;5025570;28;20788;-75
2023/01/14 10:38:29;;;;;;;1.40;1.20;;;9.10;77.40;;;;;;5024849;28;20200;-76
2023/01/14 10:41:03;;;;;;;2.60;1.57;;;9.10;77.40;;;;;;5031047;28;20460;-75
2023/01/14 10:43:44;;;;;;;5.20;1.50;;;9.20;77.40;;;;;;5032140;28;20426;-76
2023/01/14 10:46:20;;;;;;;6.87;1.60;;;9.30;77.10;;;;;;5024598;28;20806;-76
2023/01/14 10:49:12;;;;;;;5.53;1.27;;;9.40;76.80;;;;;;5028470;28;20489;-77
2023/01/14 10:51:47;;;;;;;3.03;1.30;;;9.30;76.80;;;;;;5029160;28;20424;-76
2023/01/14 10:54:15;;;;;;;2.63;1.40;;;9.40;77.00;;;;;;5033101;28;20467;-76
2023/01/14 10:57:02;;;;;;;2.27;1.40;;;9.50;76.80;;;;;;5025814;28;20470;-77
2023/01/14 10:59:28;;;;;;;2.07;1.30;;;9.60;76.40;;;;;;5024187;28;20443;-76
2023/01/14 11:01:54;;;;;;;3.83;1.20;;;9.50;76.40;;;;;;5036580;28;20419;-78
2023/01/14 11:04:31;;;;;;;5.53;1.60;;;9.50;76.50;;;;;;5043384;28;20213;-76
2023/01/14 11:06:57;;;;;;;2.50;1.10;;;9.50;76.70;;;;;;5035795;28;20488;-75
2023/01/14 11:09:28;;;;;;;2.20;1.07;;;9.50;76.70;;;;;;5039541;28;20432;-76
2023/01/14 11:11:54;;;;;;;2.30;1.23;;;9.50;76.70;;;;;;5047204;28;21136;-76
2023/01/14 11:14:28;;;;;;;2.60;1.40;;;9.50;77.00;;;;;;5047827;28;20487;-72
2023/01/14 11:16:54;;;;;;;2.47;1.30;;;9.60;76.80;;;;;;5041716;28;20448;-75
2023/01/14 11:19:21;;;;;;;5.10;1.60;;;9.70;76.50;;;;;;5045196;28;20435;-75
2023/01/14 11:22:05;;;;;;;2.53;1.13;;;9.60;76.50;;;;;;5041908;28;20191;-76
2023/01/14 11:24:51;;;;;;;5.00;1.40;;;9.70;76.50;;;;;;5041213;28;20447;-74
2023/01/14 11:27:20;;;;;;;2.60;1.40;;;9.60;76.50;;;;;;5031437;28;20452;-73
2023/01/14 11:29:54;;;;;;;2.90;1.70;;;9.60;76.70;;;;;;5032387;28;20558;-73
2023/01/14 11:32:24;;;;;;;3.33;1.40;;;9.60;76.70;;;;;;5039729;28;20451;-74
2023/01/14 11:35:02;;;;;;;4.80;1.70;;;9.70;76.70;;;;;;5030877;28;20836;-74
2023/01/14 11:37:47;;;;;;;4.00;1.70;;;9.70;76.20;;;;;;5030604;28;20452;-75
2023/01/14 11:43:22;;;;;;;4.17;1.30;;;9.90;76.10;;;;;;5029503;28;20442;-74
2023/01/14 11:46:04;;;;;;;3.30;1.43;;;9.80;75.90;;;;;;5028773;28;20438;-74
2023/01/14 11:48:30;;;;;;;1.50;1.10;;;9.90;76.10;;;;;;5029594;28;20501;-76
2023/01/14 11:50:58;;;;;;;2.20;1.10;;;9.90;75.90;;;;;;5037478;28;20427;-75
2023/01/14 11:53:26;;;;;;;3.50;1.43;;;9.90;75.90;;;;;;5033805;28;20503;-75
2023/01/14 11:55:56;;;;;;;3.50;1.20;;;9.90;76.10;;;;;;5033637;28;20421;-76
2023/01/14 11:58:27;;;;;;;3.63;1.50;;;9.90;75.70;;;;;;5035888;28;20589;-76
2023/01/14 12:01:11;;;;;;;4.57;1.30;;;10.00;75.50;;;;;;5031645;28;20495;-76
2023/01/14 12:03:59;;;;;;;4.10;1.50;;;10.00;75.40;;;;;;5033551;28;20427;-74
2023/01/14 12:06:48;;;;;;;3.40;1.40;;;10.00;75.50;;;;;;5028994;28;20431;-74
2023/01/14 12:09:33;;;;;;;3.47;1.50;;;10.00;75.50;;;;;;5033557;28;20435;-75
2023/01/14 12:12:06;;;;;;;3.43;1.43;;;9.90;75.50;;;;;;5030843;28;20884;-75
2023/01/14 12:17:29;;;;;;;5.17;1.43;;;10.00;75.40;;;;;;5027974;28;20543;-76
2023/01/14 12:20:04;;;;;;;2.70;1.53;;;10.00;75.40;;;;;;5022330;28;20424;-76
2023/01/14 12:22:54;;;;;;;2.33;1.40;;;10.00;75.40;;;;;;5033529;28;20411;-74
2023/01/14 12:25:28;;;;;;;4.10;1.67;;;10.00;75.10;;;;;;5034682;28;20447;-75
2023/01/14 12:27:58;;;;;;;3.97;1.50;;;10.00;75.20;;;;;;5029453;28;20455;-77
2023/01/14 12:30:38;;;;;;;6.67;1.80;;;10.00;75.20;;;;;;5031824;28;20412;-76
2023/01/14 12:33:31;;;;;;;6.53;1.50;;;10.00;75.20;;;;;;5022602;28;20416;-73
2023/01/14 12:36:19;;;;;;;5.40;1.60;;;10.00;74.90;;;;;;5024222;28;21274;-75
2023/01/14 12:45:58;;;;;;;4.60;1.20;;;10.00;74.80;;;;;;5029831;28;20469;-75
2023/01/14 12:48:26;;;;;;;3.37;1.20;;;10.00;74.50;;;;;;5001087;28;20468;-76
2023/01/14 12:50:57;;;;;;;2.50;1.37;;;10.00;74.60;;;;;;5003129;28;20796;-76
2023/01/14 12:53:49;;;;;;;3.30;1.30;;;10.00;74.00;;;;;;5005142;28;20473;-74
2023/01/14 12:56:21;;;;;;;4.63;1.80;;;10.00;74.00;;;;;;5009107;28;21187;-73
2023/01/14 12:59:16;;;;;;;2.60;1.80;;;10.10;73.90;;;;;;5009549;28;20556;-76
2023/01/14 13:01:51;;;;;;;6.97;1.87;;;10.00;73.90;;;;;;5004556;28;20420;-76
2023/01/14 13:04:25;;;;;;;1.50;0.97;;;10.00;73.90;;;;;;4996880;28;20570;-76
2023/01/14 13:07:03;;;;;;;3.10;1.70;;;10.00;73.70;;;;;;5007397;28;20458;-76
2023/01/14 13:09:45;;;;;;;2.90;1.30;;;10.20;73.60;;;;;;4998692;28;20444;-75
2023/01/14 13:12:33;;;;;;;7.20;2.03;;;10.10;73.50;;;;;;5006854;28;20472;-76
2023/01/14 13:15:05;;;;;;;3.70;1.87;;;10.20;72.90;;;;;;5010558;28;20471;-76
2023/01/14 13:17:38;;;;;;;4.80;1.70;;;10.20;73.00;;;;;;5002572;28;20495;-76
2023/01/14 13:20:32;;;;;;;2.33;1.50;;;10.20;73.00;;;;;;5009624;28;20815;-74
2023/01/14 13:22:59;;;;;;;2.37;1.43;;;10.20;72.90;;;;;;5007106;28;20614;-76
2023/01/14 13:25:37;;;;;;;3.13;1.40;;;10.30;72.70;;;;;;5033826;28;20424;-75
2023/01/14 13:28:12;;;;;;;2.40;1.47;;;10.30;72.10;;;;;;5035353;28;20500;-76
2023/01/14 13:30:51;;;;;;;1.40;1.20;;;10.30;71.80;;;;;;5036976;28;20419;-74
2023/01/14 13:33:18;;;;;;;4.13;1.70;;;10.30;71.70;;;;;;5039442;28;20963;-75
2023/01/14 13:36:06;;;;;;;6.90;3.50;;;10.40;71.70;;;;;;5035860;28;20485;-75
2023/01/14 13:38:33;;;;;;;2.73;1.47;;;10.30;71.80;;;;;;5029087;28;20447;-76
2023/01/14 13:41:08;;;;;;;2.30;1.60;;;10.40;71.70;;;;;;5031640;28;20454;-75
2023/01/14 13:43:47;;;;;;;2.00;1.50;;;10.40;72.00;;;;;;5027966;28;20422;-74
2023/01/14 13:46:22;;;;;;;4.27;1.80;;;10.40;71.80;;;;;;5027515;28;20454;-77
2023/01/14 13:48:53;;;;;;;3.60;1.53;;;10.40;71.80;;;;;;5020825;28;20448;-74
2023/01/14 13:51:28;;;;;;;4.63;1.60;;;10.30;71.70;;;;;;5029602;28;20447;-74
2023/01/14 13:54:05;;;;;;;5.37;1.77;;;10.30;71.40;;;;;;5028682;28;20489;-76
2023/01/14 13:56:33;;;;;;;5.27;1.40;;;10.40;71.30;;;;;;5024889;28;20439;-76
2023/01/14 13:59:00;;;;;;;2.73;1.40;;;10.50;70.80;;;;;;5025473;28;20509;-75